createdAt,value
2023-05-25T00:03:40.481Z,100872.75
2023-05-25T00:08:42.178Z,100868.91
2023-05-25T00:13:43.746Z,100866.41
2023-05-25T00:18:45.537Z,100868.16
2023-05-25T00:23:46.992Z,100868.16
2023-05-25T00:28:48.489Z,100853.81
2023-05-25T00:33:50.510Z,100843.63
2023-05-25T00:38:52.106Z,100851.28
2023-05-25T00:43:53.634Z,100853.72
2023-05-25T00:48:56.311Z,100845.19
2023-05-25T00:53:57.755Z,100850.28
2023-05-25T00:59:06.375Z,100854.63
2023-05-25T01:04:09.876Z,100839.53
2023-05-25T01:09:16.174Z,100849.88
2023-05-25T01:14:21.794Z,100855.91
2023-05-25T01:19:23.307Z,100850.88
2023-05-25T01:24:33.515Z,100854.28
2023-05-25T01:29:37.102Z,100861.97
2023-05-25T01:34:40.884Z,100859.56
2023-05-25T01:39:42.365Z,100868.09
2023-05-25T01:44:44.882Z,100864.84
2023-05-25T01:49:57.346Z,100866.63
2023-05-25T01:55:06.571Z,100862.47
2023-05-25T02:00:10.461Z,100860.91
2023-05-25T02:05:12.265Z,100860.94
2023-05-25T02:10:13.703Z,100864.38
2023-05-25T02:15:16.136Z,100862.72
2023-05-25T02:20:17.723Z,100866.16
2023-05-25T02:25:19.337Z,100856.88
2023-05-25T02:30:21.178Z,100857.66
2023-05-25T02:35:23.766Z,100844.97
2023-05-25T02:40:25.398Z,100841.66
2023-05-25T02:45:26.870Z,100851.03
2023-05-25T02:50:28.395Z,100862.94
2023-05-25T02:55:30.058Z,100857.91
2023-05-25T03:00:31.962Z,100858.81
2023-05-25T03:05:35.374Z,100857.19
2023-05-25T03:10:36.951Z,100862.34
2023-05-25T03:15:40.149Z,100871.81
2023-05-25T03:20:42.423Z,100875.25
2023-05-25T03:25:44.100Z,100890.63
2023-05-25T03:30:46.143Z,100899.16
2023-05-25T03:35:47.586Z,100906.84
2023-05-25T03:40:49.052Z,100906.88
2023-05-25T03:45:50.695Z,100911.94
2023-05-25T03:50:55.104Z,100907.66
2023-05-25T03:55:58.421Z,100896.59
2023-05-25T04:01:00.126Z,100903.22
2023-05-25T04:06:02.185Z,100897.91
2023-05-25T04:11:03.670Z,100898.38
2023-05-25T04:16:05.545Z,100905.97
2023-05-25T04:21:07.010Z,100911.19
2023-05-25T04:26:10.397Z,100903.56
2023-05-25T04:31:13.415Z,100900.34
2023-05-25T04:36:14.933Z,100906.63
2023-05-25T04:41:16.437Z,100919.69
2023-05-25T04:46:18.178Z,100915.19
2023-05-25T04:51:20.128Z,100916.59
2023-05-25T04:56:25.724Z,100928.53
2023-05-25T05:01:29.185Z,100934.72
2023-05-25T05:06:32.226Z,100926.00
2023-05-25T05:11:33.751Z,100930.78
2023-05-25T05:16:35.670Z,100924.94
2023-05-25T05:21:37.381Z,100926.03
2023-05-25T05:26:56.132Z,100932.44
2023-05-25T05:32:00.226Z,100934.81
2023-05-25T05:37:01.722Z,100933.19
2023-05-25T05:42:03.559Z,100940.63
2023-05-25T05:47:05.427Z,100945.31
2023-05-25T05:52:09.386Z,100947.78
2023-05-25T05:57:10.876Z,100946.13
2023-05-25T06:02:12.397Z,100945.03
2023-05-25T06:07:13.902Z,100947.81
2023-05-25T06:12:15.499Z,100955.34
2023-05-25T06:17:17.021Z,100963.19
2023-05-25T06:22:18.502Z,100953.84
2023-05-25T06:27:19.945Z,100955.88
2023-05-25T06:32:21.688Z,100960.06
2023-05-25T06:37:23.269Z,100961.56
2023-05-25T06:42:24.744Z,100963.22
2023-05-25T06:47:26.244Z,100960.16
2023-05-25T06:52:31.578Z,100958.78
2023-05-25T06:57:33.074Z,100953.41
2023-05-25T07:02:34.939Z,100953.88
2023-05-25T07:07:36.392Z,100947.81
2023-05-25T07:12:38.073Z,100948.34
2023-05-25T07:17:39.555Z,100939.75
2023-05-25T07:22:42.256Z,100945.59
2023-05-25T07:27:48.373Z,100935.63
2023-05-25T07:32:49.906Z,100934.81
2023-05-25T07:38:01.916Z,100920.63
2023-05-25T07:43:03.880Z,100922.41
2023-05-25T07:48:07.748Z,100935.94
2023-05-25T07:53:09.325Z,100930.16
2023-05-25T07:58:10.781Z,100931.25
2023-05-25T08:03:12.480Z,100925.34
2023-05-25T08:08:14.403Z,100932.59
2023-05-25T08:13:16.458Z,100924.63
2023-05-25T08:18:19.790Z,100931.66
2023-05-25T08:23:22.046Z,100930.53
2023-05-25T08:28:23.534Z,100932.56
2023-05-25T08:33:26.063Z,100940.78
2023-05-25T08:38:28.350Z,100940.84
2023-05-25T08:43:30.983Z,100938.25
2023-05-25T08:48:41.591Z,100926.00
2023-05-25T08:53:45.576Z,100937.25
2023-05-25T08:58:58.067Z,100937.03
2023-05-25T09:04:01.393Z,100931.38
2023-05-25T09:09:06.246Z,100937.81
2023-05-25T09:14:10.100Z,100937.16
2023-05-25T09:19:11.601Z,100952.25
2023-05-25T09:24:13.692Z,100947.81
2023-05-25T09:29:16.596Z,100935.53
2023-05-25T09:34:19.880Z,100936.31
2023-05-25T09:39:22.358Z,100942.28
2023-05-25T09:44:24.038Z,100943.38
2023-05-25T09:49:26.927Z,100944.38
2023-05-25T09:54:29.609Z,100934.34
2023-05-25T09:59:31.526Z,100923.84
2023-05-25T10:04:33.020Z,100933.75
2023-05-25T10:09:46.441Z,100929.41
2023-05-25T10:14:50.952Z,100948.63
2023-05-25T10:19:59.556Z,100936.47
2023-05-25T10:25:08.118Z,100934.81
2023-05-25T10:30:10.092Z,100955.25
2023-05-25T10:35:12.189Z,100935.31
2023-05-25T10:40:15.260Z,100922.88
2023-05-25T10:45:17.764Z,100927.75
2023-05-25T10:50:24.271Z,100934.00
2023-05-25T10:55:33.086Z,100921.56
2023-05-25T11:00:44.608Z,100921.53
2023-05-25T11:05:53.564Z,100930.06
2023-05-25T11:11:01.733Z,100925.34
2023-05-25T11:16:17.663Z,100920.84
2023-05-25T11:21:32.655Z,100934.06
2023-05-25T11:26:35.486Z,100930.44
2023-05-25T11:31:43.417Z,100917.84
2023-05-25T11:36:46.090Z,100924.81
2023-05-25T11:41:55.683Z,100919.97
2023-05-25T11:47:01.950Z,100931.38
2023-05-25T11:52:07.701Z,100910.56
2023-05-25T11:57:25.467Z,100909.50
2023-05-25T12:02:31.874Z,100913.06
2023-05-25T12:07:35.282Z,100914.72
2023-05-25T12:13:02.320Z,100905.72
2023-05-25T12:18:04.264Z,100911.16
2023-05-25T12:23:06.302Z,100905.16
2023-05-25T12:28:19.668Z,100898.59
2023-05-25T12:33:27.940Z,100899.72
2023-05-25T12:38:31.677Z,100901.34
2023-05-25T12:43:41.153Z,100903.13
2023-05-25T12:48:42.855Z,100904.09
2023-05-25T12:53:51.563Z,100906.00
2023-05-25T12:58:53.153Z,100906.81
2023-05-25T13:03:54.756Z,100902.13
2023-05-25T13:08:56.229Z,100886.34
2023-05-25T13:13:57.673Z,100891.44
2023-05-25T13:18:59.113Z,100904.25
2023-05-25T13:24:00.689Z,100885.97
2023-05-25T13:29:02.142Z,100883.41
2023-05-25T13:34:03.725Z,100903.19
2023-05-25T13:39:05.404Z,100882.00
2023-05-25T13:44:07.065Z,100880.69
2023-05-25T13:49:08.510Z,100858.69
2023-05-25T13:54:09.992Z,100881.25
2023-05-25T13:59:11.503Z,100868.16
2023-05-25T14:04:17.620Z,100871.94
2023-05-25T14:09:19.642Z,100854.91
2023-05-25T14:14:31.531Z,100854.91
2023-05-25T14:19:35.182Z,100865.31
2023-05-25T14:24:36.682Z,100853.97
2023-05-25T14:29:38.219Z,100855.13
2023-05-25T14:34:39.988Z,100847.22
2023-05-25T14:39:41.475Z,100861.47
2023-05-25T14:44:42.961Z,100859.59
2023-05-25T14:49:44.935Z,100862.13
2023-05-25T14:54:46.530Z,100861.78
2023-05-25T14:59:51.207Z,100857.72
2023-05-25T15:04:54.978Z,100861.75
2023-05-25T15:09:56.470Z,100859.41
2023-05-25T15:14:57.913Z,100855.97
2023-05-25T15:19:59.412Z,100866.47
2023-05-25T15:25:02.557Z,100855.63
2023-05-25T15:30:07.132Z,100868.84
2023-05-25T15:35:09.070Z,100866.69
2023-05-25T15:40:11.396Z,100853.47
2023-05-25T15:45:12.986Z,100849.47
2023-05-25T15:50:14.566Z,100855.63
2023-05-25T15:55:16.225Z,100847.47
2023-05-25T16:00:18.006Z,100840.25
2023-05-25T16:05:19.450Z,100838.59
2023-05-25T16:10:20.996Z,100847.72
2023-05-25T16:15:23.728Z,100844.97
2023-05-25T16:20:25.221Z,100853.25
2023-05-25T16:25:26.795Z,100841.09
2023-05-25T16:30:28.296Z,100839.78
2023-05-25T16:35:29.766Z,100848.41
2023-05-25T16:40:33.507Z,100845.19
2023-05-25T16:45:35.125Z,100841.16
2023-05-25T16:50:36.586Z,100841.44
2023-05-25T16:55:38.117Z,100837.50
2023-05-25T17:00:39.676Z,100846.72
2023-05-25T17:05:41.254Z,100841.88
2023-05-25T17:10:47.456Z,100850.81
2023-05-25T17:15:49.454Z,100848.22
2023-05-25T17:20:51.110Z,100844.44
2023-05-25T17:25:52.568Z,100843.16
2023-05-25T17:30:54.582Z,100838.28
2023-05-25T17:35:56.180Z,100837.94
2023-05-25T17:40:57.625Z,100842.88
2023-05-25T17:45:59.336Z,100836.38
2023-05-25T17:51:00.872Z,100850.75
2023-05-25T17:56:02.320Z,100848.50
2023-05-25T18:01:04.283Z,100842.94
2023-05-25T18:06:05.991Z,100851.38
2023-05-25T18:11:07.472Z,100854.41
2023-05-25T18:16:09.004Z,100860.16
2023-05-25T18:21:10.492Z,100860.72
2023-05-25T18:26:11.987Z,100854.53
2023-05-25T18:31:13.627Z,100856.22
2023-05-25T18:36:15.116Z,100863.31
2023-05-25T18:41:17.361Z,100868.13
2023-05-25T18:46:20.290Z,100874.69
2023-05-25T18:51:23.274Z,100877.91
2023-05-25T18:56:24.780Z,100873.00
2023-05-25T19:01:26.322Z,100869.03
2023-05-25T19:06:27.816Z,100878.75
2023-05-25T19:11:29.442Z,100882.31
2023-05-25T19:16:31.015Z,100877.31
2023-05-25T19:21:33.213Z,100885.50
2023-05-25T19:26:37.797Z,100897.28
2023-05-25T19:31:39.322Z,100911.31
2023-05-25T19:36:40.950Z,100914.94
2023-05-25T19:41:42.468Z,100921.59
2023-05-25T19:46:44.524Z,100925.91
2023-05-25T19:51:47.667Z,100939.69
2023-05-25T19:56:49.575Z,100937.66
2023-05-25T20:01:51.132Z,100943.59
2023-05-25T20:06:52.698Z,100949.69
2023-05-25T20:11:54.224Z,100942.66
2023-05-25T20:16:56.283Z,100943.66
2023-05-25T20:21:59.542Z,100945.84
2023-05-25T20:27:01.993Z,100941.31
2023-05-25T20:32:03.585Z,100955.41
2023-05-25T20:37:05.293Z,100958.56
2023-05-25T20:42:07.006Z,100955.44
2023-05-25T20:47:08.666Z,100972.09
2023-05-25T20:52:10.144Z,100966.81
2023-05-25T20:57:12.216Z,100974.66
2023-05-25T21:02:13.763Z,100977.78
2023-05-25T21:07:15.270Z,100987.69
2023-05-25T21:12:16.913Z,100993.63
2023-05-25T21:17:21.259Z,100997.50
2023-05-25T21:22:22.734Z,100997.06
2023-05-25T21:27:24.255Z,100995.69
2023-05-25T21:32:25.769Z,101002.63
2023-05-25T21:37:28.086Z,101003.28
2023-05-25T21:42:29.591Z,101005.78
2023-05-25T21:47:31.110Z,101020.94
2023-05-25T21:52:32.640Z,101021.31
2023-05-25T21:57:34.124Z,101027.78
2023-05-25T22:02:35.895Z,101034.69
2023-05-25T22:07:37.446Z,101031.44
2023-05-25T22:12:38.909Z,101046.69
2023-05-25T22:17:40.740Z,101045.69
2023-05-25T22:22:42.357Z,101058.72
2023-05-25T22:27:43.822Z,101057.38
2023-05-25T22:32:45.453Z,101064.22
2023-05-25T22:37:46.943Z,101063.78
2023-05-25T22:42:51.242Z,101068.66
2023-05-25T22:47:52.761Z,101067.53
2023-05-25T22:52:54.227Z,101068.28
2023-05-25T22:57:55.903Z,101071.81
2023-05-25T23:02:57.637Z,101079.75
2023-05-25T23:07:59.557Z,101087.66
2023-05-25T23:13:01.110Z,101083.59
2023-05-25T23:18:02.596Z,101087.31
2023-05-25T23:23:04.162Z,101090.97
2023-05-25T23:28:05.704Z,101088.66
2023-05-25T23:33:08.420Z,101100.91
2023-05-25T23:38:10.009Z,101092.66
2023-05-25T23:43:12.801Z,101093.13
2023-05-25T23:48:15.654Z,101106.47
2023-05-25T23:53:17.130Z,101108.25
2023-05-25T23:58:18.607Z,101109.97
